createdAt,value
2024-05-09T00:00:42.622Z,72.70
2024-05-09T00:03:11.408Z,72.80
2024-05-09T00:05:41.390Z,71.90
2024-05-09T00:08:09.486Z,72.60
2024-05-09T00:10:38.859Z,72.90
2024-05-09T00:13:07.548Z,72.70
2024-05-09T00:15:35.757Z,72.90
2024-05-09T00:18:04.384Z,72.60
2024-05-09T00:20:38.033Z,72.90
2024-05-09T00:23:09.359Z,73.40
2024-05-09T00:25:37.816Z,73.80
2024-05-09T00:28:05.477Z,73.40
2024-05-09T00:30:35.669Z,73.60
2024-05-09T00:33:05.895Z,74.20
2024-05-09T00:35:34.639Z,73.70
2024-05-09T00:38:01.971Z,74.20
2024-05-09T00:40:40.859Z,74.20
2024-05-09T00:43:14.575Z,74.20
2024-05-09T00:45:42.788Z,73.80
2024-05-09T00:48:13.463Z,74.60
2024-05-09T00:50:44.168Z,74.80
2024-05-09T00:53:12.934Z,74.60
2024-05-09T00:55:40.983Z,74.90
2024-05-09T00:58:10.129Z,75.20
2024-05-09T01:00:40.275Z,75.00
2024-05-09T01:03:10.895Z,74.80
2024-05-09T01:05:40.347Z,75.40
2024-05-09T01:08:08.318Z,75.10
2024-05-09T01:10:36.653Z,75.10
2024-05-09T01:13:05.183Z,76.00
2024-05-09T01:15:33.090Z,76.40
2024-05-09T01:18:20.646Z,76.00
2024-05-09T01:20:47.748Z,76.80
2024-05-09T01:23:16.217Z,76.50
2024-05-09T01:25:47.318Z,76.80
2024-05-09T01:28:15.205Z,77.20
2024-05-09T01:30:42.355Z,76.20
2024-05-09T01:33:11.310Z,76.50
2024-05-09T01:35:42.037Z,77.40
2024-05-09T01:38:13.232Z,77.90
2024-05-09T01:40:40.832Z,77.90
2024-05-09T01:43:09.899Z,78.10
2024-05-09T01:45:39.402Z,78.20
2024-05-09T01:48:07.161Z,78.20
2024-05-09T01:50:39.421Z,79.30
2024-05-09T01:53:10.341Z,78.70
2024-05-09T01:55:37.786Z,79.20
2024-05-09T01:58:05.071Z,80.80
2024-05-09T02:00:38.894Z,80.80
2024-05-09T02:03:11.586Z,80.80
2024-05-09T02:05:41.807Z,81.60
2024-05-09T02:08:17.469Z,82.10
2024-05-09T02:10:46.776Z,84.60
2024-05-09T02:13:14.436Z,84.00
2024-05-09T02:15:41.470Z,85.10
2024-05-09T02:18:09.010Z,85.10
2024-05-09T02:20:39.572Z,86.40
2024-05-09T02:23:08.618Z,86.70
2024-05-09T02:25:35.828Z,86.70
2024-05-09T02:28:03.164Z,88.00
2024-05-09T02:30:38.730Z,89.00
2024-05-09T02:33:10.598Z,89.20
2024-05-09T02:35:39.599Z,89.50
2024-05-09T02:38:06.910Z,90.10
2024-05-09T02:40:37.718Z,90.20
2024-05-09T02:43:12.513Z,90.50
2024-05-09T02:45:40.738Z,90.50
2024-05-09T02:48:11.521Z,91.20
2024-05-09T02:50:42.346Z,91.40
2024-05-09T02:53:11.266Z,91.30
2024-05-09T02:55:39.139Z,91.70
2024-05-09T02:58:09.761Z,91.80
2024-05-09T03:00:40.785Z,92.20
2024-05-09T03:03:12.752Z,92.20
2024-05-09T03:05:42.903Z,93.00
2024-05-09T03:08:10.155Z,93.40
2024-05-09T03:10:38.767Z,93.60
2024-05-09T03:13:12.207Z,93.90
2024-05-09T03:15:39.938Z,93.80
2024-05-09T03:18:07.447Z,94.10
2024-05-09T03:20:36.224Z,94.10
2024-05-09T03:23:05.729Z,94.70
2024-05-09T03:25:33.466Z,95.00
2024-05-09T03:28:01.277Z,95.50
2024-05-09T03:30:38.905Z,95.60
2024-05-09T03:33:15.769Z,95.90
2024-05-09T03:35:47.160Z,96.00
2024-05-09T03:38:14.771Z,96.20
2024-05-09T03:40:50.305Z,97.10
2024-05-09T03:43:18.632Z,97.10
2024-05-09T03:45:48.208Z,96.90
2024-05-09T03:48:15.578Z,96.60
2024-05-09T03:50:42.929Z,96.80
2024-05-09T03:53:11.270Z,96.80
2024-05-09T03:55:39.012Z,96.90
2024-05-09T03:58:07.988Z,97.80
2024-05-09T04:00:38.970Z,97.90
2024-05-09T04:03:10.191Z,98.20
2024-05-09T04:05:44.561Z,98.30
2024-05-09T04:08:13.069Z,98.00
2024-05-09T04:10:41.134Z,98.20
2024-05-09T04:13:09.346Z,98.40
2024-05-09T04:15:36.304Z,98.40
2024-05-09T04:18:03.639Z,98.10
2024-05-09T04:20:38.049Z,98.80
2024-05-09T04:23:10.870Z,98.50
2024-05-09T04:25:38.141Z,99.10
2024-05-09T04:28:05.642Z,99.30
2024-05-09T04:30:38.192Z,99.70
2024-05-09T04:33:10.623Z,98.90
2024-05-09T04:35:39.907Z,98.10
2024-05-09T04:38:07.890Z,97.50
2024-05-09T04:40:36.921Z,97.20
2024-05-09T04:43:19.030Z,97.70
2024-05-09T04:45:46.510Z,97.60
2024-05-09T04:48:13.647Z,97.20
2024-05-09T04:50:41.056Z,97.20
2024-05-09T04:53:10.417Z,96.90
2024-05-09T04:55:39.275Z,97.10
2024-05-09T04:58:10.009Z,96.50
2024-05-09T05:00:39.125Z,95.70
2024-05-09T05:03:14.213Z,96.00
2024-05-09T05:05:44.782Z,96.00
2024-05-09T05:08:17.939Z,95.90
2024-05-09T05:10:46.648Z,95.70
2024-05-09T05:13:18.493Z,96.40
2024-05-09T05:15:47.326Z,96.10
2024-05-09T05:18:15.452Z,96.40
2024-05-09T05:20:42.902Z,96.10
2024-05-09T05:23:15.108Z,96.10
2024-05-09T05:25:43.162Z,96.50
2024-05-09T05:28:10.788Z,96.60
2024-05-09T05:30:38.951Z,96.00
2024-05-09T05:33:07.004Z,96.00
2024-05-09T05:35:34.991Z,95.00
2024-05-09T05:38:02.808Z,95.20
2024-05-09T05:40:36.128Z,95.20
2024-05-09T05:43:05.897Z,94.90
2024-05-09T05:45:33.152Z,94.70
2024-05-09T05:48:02.801Z,95.00
2024-05-09T05:50:35.807Z,94.60
2024-05-09T05:53:07.399Z,95.10
2024-05-09T05:55:35.836Z,95.60
2024-05-09T05:58:03.621Z,94.40
2024-05-09T06:00:38.080Z,94.30
2024-05-09T06:03:07.911Z,94.20
2024-05-09T06:05:36.711Z,93.80
2024-05-09T06:08:04.163Z,93.00
2024-05-09T06:10:37.960Z,93.50
2024-05-09T06:13:08.063Z,92.80
2024-05-09T06:15:35.134Z,92.40
2024-05-09T06:18:04.646Z,92.00
2024-05-09T06:20:36.311Z,91.80
2024-05-09T06:23:06.534Z,91.60
2024-05-09T06:25:34.576Z,91.80
2024-05-09T06:28:01.936Z,91.80
2024-05-09T06:30:37.583Z,91.40
2024-05-09T06:33:09.019Z,92.30
2024-05-09T06:35:37.088Z,91.40
2024-05-09T06:38:04.551Z,90.70
2024-05-09T06:40:37.790Z,91.00
2024-05-09T06:43:14.316Z,90.90
2024-05-09T06:45:41.881Z,90.50
2024-05-09T06:48:09.584Z,90.70
2024-05-09T06:50:38.613Z,91.70
2024-05-09T06:53:07.619Z,91.60
2024-05-09T06:55:35.103Z,90.40
2024-05-09T06:58:02.212Z,90.10
2024-05-09T07:00:35.890Z,89.30
2024-05-09T07:03:12.174Z,89.50
2024-05-09T07:05:40.737Z,89.40
2024-05-09T07:08:08.116Z,87.30
2024-05-09T07:10:36.823Z,87.90
2024-05-09T07:13:09.169Z,87.80
2024-05-09T07:15:36.143Z,85.40
2024-05-09T07:18:15.546Z,85.50
2024-05-09T07:20:43.322Z,84.60
2024-05-09T07:23:10.959Z,84.90
2024-05-09T07:25:38.914Z,83.30
2024-05-09T07:28:09.867Z,80.80
2024-05-09T07:30:36.964Z,81.30
2024-05-09T07:33:04.284Z,79.70
2024-05-09T07:35:31.684Z,80.20
2024-05-09T07:37:59.465Z,77.50
2024-05-09T07:40:33.291Z,77.60
2024-05-09T07:43:04.709Z,75.20
2024-05-09T07:45:48.160Z,76.30
2024-05-09T07:52:37.293Z,71.70
2024-05-09T07:53:47.922Z,70.80
2024-05-09T07:56:19.723Z,70.50
2024-05-09T07:58:50.905Z,70.30
2024-05-09T08:01:18.323Z,69.70
2024-05-09T08:03:46.045Z,69.80
2024-05-09T08:06:13.344Z,69.30
2024-05-09T08:08:40.369Z,69.40
2024-05-09T08:11:07.392Z,68.70
2024-05-09T08:13:34.422Z,69.30
2024-05-09T08:16:01.582Z,69.40
2024-05-09T08:18:28.937Z,70.00
2024-05-09T08:20:56.190Z,69.80
2024-05-09T08:23:23.940Z,70.40
2024-05-09T08:25:53.163Z,69.70
2024-05-09T08:28:20.496Z,68.80
2024-05-09T08:30:47.994Z,69.30
2024-05-09T08:33:15.456Z,69.40
2024-05-09T08:35:42.731Z,70.60
2024-05-09T08:38:09.873Z,71.40
2024-05-09T08:40:38.061Z,71.80
2024-05-09T08:43:11.510Z,70.80
2024-05-09T08:45:43.192Z,65.20
2024-05-09T08:48:13.900Z,64.90
2024-05-09T08:50:42.122Z,64.50
2024-05-09T08:53:09.543Z,64.10
2024-05-09T08:55:40.576Z,65.00
2024-05-09T08:58:15.121Z,64.70
2024-05-09T09:00:44.418Z,62.90
2024-05-09T09:03:26.883Z,63.60
2024-05-09T09:06:02.187Z,64.00
2024-05-09T09:08:29.258Z,62.60
2024-05-09T09:10:58.699Z,63.00
2024-05-09T09:13:26.682Z,63.70
2024-05-09T09:15:57.881Z,63.80
2024-05-09T09:18:26.751Z,64.30
2024-05-09T09:20:54.965Z,63.30
2024-05-09T09:23:22.290Z,63.20
2024-05-09T09:25:49.679Z,62.20
2024-05-09T09:28:16.784Z,63.60
2024-05-09T09:30:44.186Z,63.80
2024-05-09T09:33:12.354Z,62.90
2024-05-09T09:35:40.535Z,60.40
2024-05-09T09:38:10.090Z,59.80
2024-05-09T09:40:44.764Z,59.70
2024-05-09T09:43:21.694Z,60.40
2024-05-09T09:45:52.190Z,62.30
2024-05-09T09:48:23.545Z,62.00
2024-05-09T09:50:55.357Z,61.70
2024-05-09T09:53:23.829Z,61.90
2024-05-09T09:55:53.060Z,61.70
2024-05-09T09:58:20.827Z,61.80
2024-05-09T10:00:48.065Z,60.20
2024-05-09T10:03:15.222Z,59.80
2024-05-09T10:05:46.129Z,58.30
2024-05-09T10:08:16.020Z,59.80
2024-05-09T10:10:47.309Z,59.80
2024-05-09T10:13:14.756Z,60.30
2024-05-09T10:15:52.923Z,60.40
2024-05-09T10:18:27.231Z,60.60
2024-05-09T10:20:56.547Z,60.30
2024-05-09T10:23:32.428Z,59.30
2024-05-09T10:26:01.485Z,58.80
2024-05-09T10:28:29.806Z,57.90
2024-05-09T10:31:14.837Z,57.80
2024-05-09T10:33:52.304Z,59.50
2024-05-09T10:36:23.873Z,59.10
2024-05-09T10:38:52.505Z,58.40
2024-05-09T10:41:21.540Z,59.50
2024-05-09T10:43:49.428Z,57.60
2024-05-09T10:46:16.959Z,57.70
2024-05-09T10:48:44.844Z,57.00
2024-05-09T10:51:13.260Z,56.50
2024-05-09T10:53:45.243Z,56.30
2024-05-09T10:56:14.773Z,57.20
2024-05-09T10:58:42.355Z,57.40
2024-05-09T11:01:10.277Z,56.10
2024-05-09T11:03:39.013Z,56.00
2024-05-09T11:06:07.052Z,56.70
2024-05-09T11:08:35.022Z,57.00
2024-05-09T11:11:08.152Z,58.10
2024-05-09T11:13:38.174Z,56.70
2024-05-09T11:16:07.101Z,56.50
2024-05-09T11:18:38.106Z,57.20
2024-05-09T11:21:13.476Z,57.20
2024-05-09T11:23:41.003Z,56.80
2024-05-09T11:26:09.135Z,56.60
2024-05-09T11:28:36.183Z,58.90
2024-05-09T11:31:10.487Z,57.20
2024-05-09T11:33:48.146Z,58.70
2024-05-09T11:36:15.842Z,58.10
2024-05-09T11:38:43.193Z,58.50
2024-05-09T11:41:17.535Z,56.30
2024-05-09T11:43:44.490Z,57.20
2024-05-09T11:46:11.637Z,57.80
2024-05-09T11:48:39.847Z,56.30
2024-05-09T11:51:07.030Z,56.80
2024-05-09T11:53:33.965Z,55.80
2024-05-09T11:56:01.154Z,56.00
2024-05-09T11:58:29.877Z,56.00
2024-05-09T12:00:57.395Z,55.40
2024-05-09T12:03:24.662Z,54.90
2024-05-09T12:05:51.967Z,54.20
2024-05-09T12:08:19.510Z,54.90
2024-05-09T12:10:47.061Z,54.00
2024-05-09T12:13:14.181Z,55.00
2024-05-09T12:15:42.678Z,53.90
2024-05-09T12:18:09.870Z,54.40
2024-05-09T12:20:39.418Z,55.40
2024-05-09T12:23:10.173Z,54.60
2024-05-09T12:25:39.177Z,54.80
2024-05-09T12:28:07.526Z,54.80
2024-05-09T12:30:38.768Z,55.80
2024-05-09T12:33:09.639Z,56.90
2024-05-09T12:35:36.988Z,56.30
2024-05-09T12:38:04.510Z,55.60
2024-05-09T12:40:36.437Z,56.50
2024-05-09T12:43:07.904Z,55.80
2024-05-09T12:45:36.006Z,55.50
2024-05-09T12:48:04.617Z,56.20
2024-05-09T12:50:34.058Z,57.20
2024-05-09T12:53:03.195Z,56.90
2024-05-09T12:55:37.361Z,55.70
2024-05-09T12:58:11.964Z,55.70
2024-05-09T13:00:39.454Z,56.90
2024-05-09T13:03:07.058Z,56.20
2024-05-09T13:05:34.377Z,55.00
2024-05-09T13:08:02.118Z,54.60
2024-05-09T13:10:32.686Z,54.50
2024-05-09T13:13:01.902Z,55.70
2024-05-09T13:15:31.136Z,55.20
2024-05-09T13:18:02.059Z,54.00
2024-05-09T13:20:34.354Z,54.00
2024-05-09T13:23:08.256Z,55.10
2024-05-09T13:25:36.514Z,54.40
2024-05-09T13:28:04.696Z,54.50
2024-05-09T13:30:39.315Z,54.30
2024-05-09T13:33:13.572Z,55.10
2024-05-09T13:35:48.543Z,54.20
2024-05-09T13:38:21.364Z,54.00
2024-05-09T13:40:49.374Z,53.70
2024-05-09T13:43:17.891Z,54.10
2024-05-09T13:45:45.459Z,52.60
2024-05-09T13:48:12.774Z,52.50
2024-05-09T13:50:39.965Z,52.70
2024-05-09T13:53:08.306Z,53.00
2024-05-09T13:55:39.495Z,53.40
2024-05-09T13:58:07.108Z,52.50
2024-05-09T14:00:44.192Z,52.80
2024-05-09T14:03:16.752Z,53.00
2024-05-09T14:05:45.498Z,52.30
2024-05-09T14:08:15.238Z,52.30
2024-05-09T14:10:44.690Z,51.50
2024-05-09T14:13:13.126Z,51.40
2024-05-09T14:15:40.696Z,51.60
2024-05-09T14:18:12.314Z,52.70
2024-05-09T14:20:41.424Z,52.80
2024-05-09T14:23:08.483Z,52.20
2024-05-09T14:25:39.025Z,52.90
2024-05-09T14:28:09.604Z,53.10
2024-05-09T14:30:38.202Z,53.80
2024-05-09T14:33:07.792Z,53.90
2024-05-09T14:35:37.392Z,54.10
2024-05-09T14:38:04.929Z,53.70
2024-05-09T14:40:40.675Z,55.00
2024-05-09T14:43:11.624Z,54.60
2024-05-09T14:45:39.206Z,52.90
2024-05-09T14:48:07.472Z,53.60
2024-05-09T14:50:38.236Z,53.90
2024-05-09T14:53:11.055Z,54.00
2024-05-09T14:55:40.302Z,53.90
2024-05-09T14:58:09.728Z,54.00
2024-05-09T15:00:42.246Z,54.00
2024-05-09T15:03:12.111Z,54.20
2024-05-09T15:05:39.314Z,53.40
2024-05-09T15:08:07.994Z,54.80
2024-05-09T15:10:36.681Z,55.10
2024-05-09T15:13:05.840Z,54.10
2024-05-09T15:15:34.090Z,53.40
2024-05-09T15:18:01.347Z,53.10
2024-05-09T15:20:34.573Z,54.20
2024-05-09T15:23:04.569Z,54.00
2024-05-09T15:25:32.978Z,53.70
2024-05-09T15:28:00.147Z,53.40
2024-05-09T15:30:31.565Z,53.90
2024-05-09T15:33:01.314Z,54.20
2024-05-09T15:35:29.235Z,54.30
2024-05-09T15:37:56.689Z,54.40
2024-05-09T15:40:35.430Z,56.80
2024-05-09T15:43:07.454Z,55.40
2024-05-09T15:45:35.298Z,54.70
2024-05-09T15:48:03.267Z,55.10
2024-05-09T15:50:37.491Z,55.40
2024-05-09T15:53:09.113Z,55.20
2024-05-09T15:55:36.983Z,54.40
2024-05-09T15:58:05.014Z,57.60
2024-05-09T16:00:38.414Z,54.70
2024-05-09T16:03:13.896Z,56.80
2024-05-09T16:05:44.532Z,56.90
2024-05-09T16:08:12.824Z,58.30
2024-05-09T16:10:44.470Z,70.30
2024-05-09T16:13:12.826Z,76.10
2024-05-09T16:15:39.991Z,74.90
2024-05-09T16:18:07.733Z,68.50
2024-05-09T16:20:39.972Z,71.90
2024-05-09T16:23:09.580Z,78.00
2024-05-09T16:25:37.295Z,68.50
2024-05-09T16:28:08.565Z,76.00
2024-05-09T16:30:40.926Z,65.40
2024-05-09T16:33:08.832Z,69.40
2024-05-09T16:35:37.124Z,79.70
2024-05-09T16:38:04.783Z,71.20
2024-05-09T16:40:38.239Z,67.80
2024-05-09T16:43:11.333Z,62.60
2024-05-09T16:45:40.542Z,64.10
2024-05-09T16:48:08.388Z,72.30
2024-05-09T16:50:36.695Z,64.30
2024-05-09T16:53:05.194Z,63.20
2024-05-09T16:55:33.110Z,66.50
2024-05-09T16:58:00.763Z,63.80
2024-05-09T17:00:38.242Z,66.40
2024-05-09T17:03:10.806Z,61.30
2024-05-09T17:05:38.820Z,70.40
2024-05-09T17:08:07.042Z,72.50
2024-05-09T17:10:35.821Z,75.70
2024-05-09T17:13:05.135Z,70.60
2024-05-09T17:15:33.872Z,75.20
2024-05-09T17:18:01.896Z,70.40
2024-05-09T17:20:34.126Z,65.60
2024-05-09T17:23:05.532Z,70.30
2024-05-09T17:25:33.645Z,73.00
2024-05-09T17:28:07.573Z,68.10
2024-05-09T17:30:38.195Z,65.20
2024-05-09T17:33:08.999Z,71.20
2024-05-09T17:35:37.000Z,76.40
2024-05-09T17:38:07.054Z,76.80
2024-05-09T17:40:36.891Z,77.80
2024-05-09T17:43:07.072Z,76.70
2024-05-09T17:45:37.787Z,75.00
2024-05-09T17:48:05.380Z,74.70
2024-05-09T17:50:36.275Z,74.90
2024-05-09T17:53:06.154Z,74.50
2024-05-09T17:55:33.818Z,77.60
2024-05-09T17:58:01.254Z,80.00
2024-05-09T18:00:36.810Z,82.20
2024-05-09T18:03:08.562Z,81.90
2024-05-09T18:05:37.097Z,78.20
2024-05-09T18:08:05.921Z,77.30
2024-05-09T18:10:37.202Z,77.30
2024-05-09T18:13:10.516Z,78.80
2024-05-09T18:15:38.575Z,78.30
2024-05-09T18:18:06.812Z,74.90
2024-05-09T18:20:41.927Z,78.10
2024-05-09T18:23:14.662Z,77.20
2024-05-09T18:25:42.987Z,74.50
2024-05-09T18:28:10.318Z,74.60
2024-05-09T18:30:37.869Z,77.20
2024-05-09T18:33:07.644Z,77.00
2024-05-09T18:35:36.236Z,75.00
2024-05-09T18:38:04.862Z,75.20
2024-05-09T18:40:35.721Z,74.60
2024-05-09T18:43:07.499Z,75.50
2024-05-09T18:45:39.195Z,74.60
2024-05-09T18:48:08.241Z,75.10
2024-05-09T18:50:39.331Z,75.90
2024-05-09T18:53:11.009Z,77.60
2024-05-09T18:55:39.214Z,76.40
2024-05-09T18:58:06.597Z,76.70
2024-05-09T19:00:37.492Z,77.60
2024-05-09T19:03:12.512Z,76.60
2024-05-09T19:05:43.060Z,76.40
2024-05-09T19:08:11.316Z,77.80
2024-05-09T19:10:39.449Z,77.80
2024-05-09T19:13:11.538Z,75.00
2024-05-09T19:15:41.184Z,77.40
2024-05-09T19:18:09.567Z,75.90
2024-05-09T19:20:37.473Z,75.60
2024-05-09T19:23:06.186Z,75.90
2024-05-09T19:25:34.516Z,75.30
2024-05-09T19:28:01.994Z,75.60
2024-05-09T19:30:37.568Z,75.90
2024-05-09T19:33:09.231Z,77.10
2024-05-09T19:35:36.960Z,76.90
2024-05-09T19:38:05.178Z,80.10
2024-05-09T19:40:34.079Z,78.70
2024-05-09T19:43:03.156Z,80.90
2024-05-09T19:45:32.340Z,81.00
2024-05-09T19:47:59.532Z,81.00
2024-05-09T19:50:35.484Z,81.00
2024-05-09T19:53:08.599Z,81.00
2024-05-09T19:55:35.677Z,82.80
2024-05-09T19:58:05.447Z,82.40
2024-05-09T20:00:39.667Z,79.90
2024-05-09T20:03:09.652Z,80.30
2024-05-09T20:05:37.877Z,80.70
2024-05-09T20:08:06.176Z,81.60
2024-05-09T20:10:35.424Z,80.70
2024-05-09T20:13:05.357Z,83.80
2024-05-09T20:15:34.805Z,84.90
2024-05-09T20:18:02.555Z,84.50
2024-05-09T20:20:37.314Z,84.70
2024-05-09T20:23:09.063Z,85.10
2024-05-09T20:25:36.274Z,86.50
2024-05-09T20:28:03.442Z,87.00
2024-05-09T20:30:33.032Z,86.40
2024-05-09T20:33:07.181Z,87.60
2024-05-09T20:35:35.616Z,89.00
2024-05-09T20:38:03.713Z,88.00
2024-05-09T20:40:35.479Z,88.90
2024-05-09T20:43:06.674Z,88.80
2024-05-09T20:45:34.335Z,89.00
2024-05-09T20:48:01.971Z,90.10
2024-05-09T20:50:36.992Z,90.30
2024-05-09T20:53:09.908Z,90.30
2024-05-09T20:55:37.127Z,90.30
2024-05-09T20:58:04.375Z,91.50
2024-05-09T21:00:39.772Z,91.30
2024-05-09T21:03:11.285Z,90.30
2024-05-09T21:05:39.294Z,91.00
2024-05-09T21:08:06.974Z,91.90
2024-05-09T21:10:35.743Z,91.00
2024-05-09T21:13:03.839Z,91.60
2024-05-09T21:15:31.853Z,91.90
2024-05-09T21:17:59.365Z,92.00
2024-05-09T21:22:58.131Z,92.40
2024-05-09T21:25:25.239Z,92.90
2024-05-09T21:27:52.521Z,93.10
2024-05-09T21:30:31.384Z,92.80
2024-05-09T21:33:06.196Z,93.00
2024-05-09T21:35:33.435Z,93.50
2024-05-09T21:38:00.660Z,94.10
2024-05-09T21:40:34.111Z,94.90
2024-05-09T21:43:03.737Z,95.50
2024-05-09T21:45:31.064Z,96.00
2024-05-09T21:47:58.162Z,95.80
2024-05-09T21:50:32.386Z,96.60
2024-05-09T21:53:06.874Z,96.80
2024-05-09T21:55:34.095Z,97.50
2024-05-09T21:58:01.356Z,96.90
2024-05-09T22:00:35.514Z,98.20
2024-05-09T22:03:09.310Z,97.50
2024-05-09T22:05:38.063Z,97.80
2024-05-09T22:08:05.845Z,97.90
2024-05-09T22:10:35.478Z,98.30
2024-05-09T22:13:05.319Z,98.40
2024-05-09T22:15:36.400Z,99.10
2024-05-09T22:18:04.804Z,99.70
2024-05-09T22:20:37.225Z,99.70
2024-05-09T22:23:06.459Z,99.60
2024-05-09T22:25:33.791Z,99.40
2024-05-09T22:28:02.478Z,99.80
2024-05-09T22:32:59.805Z,99.40
2024-05-09T22:35:26.868Z,99.90
2024-05-09T22:37:53.885Z,99.80
2024-05-09T22:40:29.451Z,99.80
2024-05-09T22:43:06.244Z,99.90
2024-05-09T22:45:33.603Z,99.90
2024-05-09T22:48:01.022Z,99.90
2024-05-09T22:50:33.102Z,99.90
2024-05-09T22:53:00.916Z,99.90
2024-05-09T22:55:28.135Z,99.90
2024-05-09T22:57:55.274Z,99.90
2024-05-09T23:00:30.858Z,99.90
2024-05-09T23:03:01.344Z,99.90
2024-05-09T23:05:29.157Z,99.90
2024-05-09T23:07:56.451Z,99.90
2024-05-09T23:10:31.145Z,99.90
2024-05-09T23:13:02.793Z,99.90
2024-05-09T23:15:30.183Z,99.90
2024-05-09T23:17:58.091Z,99.90
2024-05-09T23:20:35.351Z,99.90
2024-05-09T23:23:06.517Z,99.90
2024-05-09T23:25:33.714Z,99.90
2024-05-09T23:28:00.917Z,99.90
2024-05-09T23:30:34.729Z,99.90
2024-05-09T23:33:06.417Z,99.90
2024-05-09T23:35:33.580Z,99.90
2024-05-09T23:38:00.659Z,99.90
2024-05-09T23:40:37.463Z,99.90
2024-05-09T23:43:11.382Z,99.90
2024-05-09T23:45:39.353Z,99.90
2024-05-09T23:48:07.078Z,99.90
2024-05-09T23:50:37.558Z,99.90
2024-05-09T23:53:08.202Z,99.90
2024-05-09T23:55:36.606Z,99.90
2024-05-09T23:58:03.783Z,99.90
